sensor_id;sensor_type;location;lat;lon;timestamp;temperature;humidity
22738;DHT22;11536;50.860;4.286;2023-01-19T00:01:55;2.90;99.90
22738;DHT22;11536;50.860;4.286;2023-01-19T00:04:20;3.00;99.90
22738;DHT22;11536;50.860;4.286;2023-01-19T00:06:46;3.00;99.90
22738;DHT22;11536;50.860;4.286;2023-01-19T00:09:11;3.00;99.90
22738;DHT22;11536;50.860;4.286;2023-01-19T00:11:37;3.00;99.90
22738;DHT22;11536;50.860;4.286;2023-01-19T00:14:03;3.00;99.90
22738;DHT22;11536;50.860;4.286;2023-01-19T00:16:29;3.00;99.90
22738;DHT22;11536;50.860;4.286;2023-01-19T00:18:54;3.00;99.90
22738;DHT22;11536;50.860;4.286;2023-01-19T00:21:20;3.00;99.90
22738;DHT22;11536;50.860;4.286;2023-01-19T00:23:47;3.00;99.90
22738;DHT22;11536;50.860;4.286;2023-01-19T00:26:14;3.00;99.90
22738;DHT22;11536;50.860;4.286;2023-01-19T00:28:41;3.00;99.90
22738;DHT22;11536;50.860;4.286;2023-01-19T00:31:07;3.00;99.90
22738;DHT22;11536;50.860;4.286;2023-01-19T00:33:32;3.00;99.90
22738;DHT22;11536;50.860;4.286;2023-01-19T00:35:58;3.00;99.90
22738;DHT22;11536;50.860;4.286;2023-01-19T00:38:24;3.00;99.90
22738;DHT22;11536;50.860;4.286;2023-01-19T00:40:49;3.00;99.90
22738;DHT22;11536;50.860;4.286;2023-01-19T00:43:15;3.10;99.90
22738;DHT22;11536;50.860;4.286;2023-01-19T00:45:40;3.00;99.90
22738;DHT22;11536;50.860;4.286;2023-01-19T00:48:06;3.00;99.90
22738;DHT22;11536;50.860;4.286;2023-01-19T00:50:32;3.00;99.90
22738;DHT22;11536;50.860;4.286;2023-01-19T00:52:58;3.00;99.90
22738;DHT22;11536;50.860;4.286;2023-01-19T00:55:28;3.00;99.90
22738;DHT22;11536;50.860;4.286;2023-01-19T00:57:54;2.90;99.90
22738;DHT22;11536;50.860;4.286;2023-01-19T01:00:21;2.90;99.90
22738;DHT22;11536;50.860;4.286;2023-01-19T01:02:49;2.90;99.90
22738;DHT22;11536;50.860;4.286;2023-01-19T01:05:15;3.00;99.90
22738;DHT22;11536;50.860;4.286;2023-01-19T01:07:41;2.90;99.90
22738;DHT22;11536;50.860;4.286;2023-01-19T01:10:10;3.00;99.90
22738;DHT22;11536;50.860;4.286;2023-01-19T01:12:38;2.90;99.90
22738;DHT22;11536;50.860;4.286;2023-01-19T01:15:08;3.00;99.90
22738;DHT22;11536;50.860;4.286;2023-01-19T01:17:34;2.90;99.90
22738;DHT22;11536;50.860;4.286;2023-01-19T01:20:00;2.90;99.90
22738;DHT22;11536;50.860;4.286;2023-01-19T01:22:26;2.90;99.90
22738;DHT22;11536;50.860;4.286;2023-01-19T01:24:51;2.80;99.90
22738;DHT22;11536;50.860;4.286;2023-01-19T01:27:17;2.80;99.90
22738;DHT22;11536;50.860;4.286;2023-01-19T01:29:43;2.80;99.90
22738;DHT22;11536;50.860;4.286;2023-01-19T01:32:12;2.80;99.90
22738;DHT22;11536;50.860;4.286;2023-01-19T01:34:38;2.80;99.90
22738;DHT22;11536;50.860;4.286;2023-01-19T01:37:04;2.80;99.90
22738;DHT22;11536;50.860;4.286;2023-01-19T01:39:35;2.80;99.90
22738;DHT22;11536;50.860;4.286;2023-01-19T01:42:02;2.80;99.90
22738;DHT22;11536;50.860;4.286;2023-01-19T01:44:50;2.80;99.90
22738;DHT22;11536;50.860;4.286;2023-01-19T01:47:36;2.80;99.90
22738;DHT22;11536;50.860;4.286;2023-01-19T01:53:00;2.80;99.90
22738;DHT22;11536;50.860;4.286;2023-01-19T01:55:28;2.70;99.90
22738;DHT22;11536;50.860;4.286;2023-01-19T01:58:01;2.70;99.90
22738;DHT22;11536;50.860;4.286;2023-01-19T02:00:28;2.70;99.90
22738;DHT22;11536;50.860;4.286;2023-01-19T02:03:15;2.60;99.90
22738;DHT22;11536;50.860;4.286;2023-01-19T02:05:41;2.70;99.90
22738;DHT22;11536;50.860;4.286;2023-01-19T02:08:25;2.60;99.90
22738;DHT22;11536;50.860;4.286;2023-01-19T02:11:10;2.70;99.90
22738;DHT22;11536;50.860;4.286;2023-01-19T02:13:54;2.60;99.90
22738;DHT22;11536;50.860;4.286;2023-01-19T02:16:20;2.60;99.90
22738;DHT22;11536;50.860;4.286;2023-01-19T02:18:46;2.60;99.90
22738;DHT22;11536;50.860;4.286;2023-01-19T02:23:57;2.60;99.90
22738;DHT22;11536;50.860;4.286;2023-01-19T02:26:30;2.60;99.90
22738;DHT22;11536;50.860;4.286;2023-01-19T02:28:59;2.60;99.90
22738;DHT22;11536;50.860;4.286;2023-01-19T02:31:27;2.60;99.90
22738;DHT22;11536;50.860;4.286;2023-01-19T02:33:54;2.60;99.90
22738;DHT22;11536;50.860;4.286;2023-01-19T02:36:23;2.60;99.90
22738;DHT22;11536;50.860;4.286;2023-01-19T02:38:55;2.60;99.90
22738;DHT22;11536;50.860;4.286;2023-01-19T02:41:25;2.60;99.90
22738;DHT22;11536;50.860;4.286;2023-01-19T02:43:53;2.60;99.90
22738;DHT22;11536;50.860;4.286;2023-01-19T02:46:20;2.60;99.90
22738;DHT22;11536;50.860;4.286;2023-01-19T02:48:45;2.60;99.90
22738;DHT22;11536;50.860;4.286;2023-01-19T02:51:14;2.60;99.90
22738;DHT22;11536;50.860;4.286;2023-01-19T02:59:32;2.60;99.90
22738;DHT22;11536;50.860;4.286;2023-01-19T03:10:58;2.60;99.90
22738;DHT22;11536;50.860;4.286;2023-01-19T03:13:46;2.60;99.90
22738;DHT22;11536;50.860;4.286;2023-01-19T03:16:46;2.60;99.90
22738;DHT22;11536;50.860;4.286;2023-01-19T03:21:58;2.60;99.90
22738;DHT22;11536;50.860;4.286;2023-01-19T03:24:28;2.70;99.90
22738;DHT22;11536;50.860;4.286;2023-01-19T03:27:04;2.70;99.90
22738;DHT22;11536;50.860;4.286;2023-01-19T03:29:32;2.70;99.90
22738;DHT22;11536;50.860;4.286;2023-01-19T03:32:09;2.70;99.90
22738;DHT22;11536;50.860;4.286;2023-01-19T03:34:37;2.60;99.90
22738;DHT22;11536;50.860;4.286;2023-01-19T03:37:04;2.60;99.90
22738;DHT22;11536;50.860;4.286;2023-01-19T03:39:31;2.60;99.90
22738;DHT22;11536;50.860;4.286;2023-01-19T03:42:02;2.60;99.90
22738;DHT22;11536;50.860;4.286;2023-01-19T03:44:30;2.70;99.90
22738;DHT22;11536;50.860;4.286;2023-01-19T03:46:58;2.70;99.90
22738;DHT22;11536;50.860;4.286;2023-01-19T03:49:24;2.70;99.90
22738;DHT22;11536;50.860;4.286;2023-01-19T03:51:50;2.70;99.90
22738;DHT22;11536;50.860;4.286;2023-01-19T03:54:19;2.80;99.90
22738;DHT22;11536;50.860;4.286;2023-01-19T03:56:44;2.70;99.90
22738;DHT22;11536;50.860;4.286;2023-01-19T03:59:10;2.80;99.90
22738;DHT22;11536;50.860;4.286;2023-01-19T04:01:35;2.70;99.90
22738;DHT22;11536;50.860;4.286;2023-01-19T04:04:01;2.80;99.90
22738;DHT22;11536;50.860;4.286;2023-01-19T04:06:27;2.80;99.90
22738;DHT22;11536;50.860;4.286;2023-01-19T04:08:52;2.80;99.90
22738;DHT22;11536;50.860;4.286;2023-01-19T04:11:18;2.70;99.90
22738;DHT22;11536;50.860;4.286;2023-01-19T04:13:43;2.70;99.90
22738;DHT22;11536;50.860;4.286;2023-01-19T04:16:10;2.70;99.90
22738;DHT22;11536;50.860;4.286;2023-01-19T04:18:36;2.70;99.90
22738;DHT22;11536;50.860;4.286;2023-01-19T04:21:03;2.70;99.90
22738;DHT22;11536;50.860;4.286;2023-01-19T04:23:29;2.60;99.90
22738;DHT22;11536;50.860;4.286;2023-01-19T04:25:59;2.60;99.90
22738;DHT22;11536;50.860;4.286;2023-01-19T04:28:26;2.60;99.90
22738;DHT22;11536;50.860;4.286;2023-01-19T04:30:51;2.60;99.90
22738;DHT22;11536;50.860;4.286;2023-01-19T04:33:20;2.60;99.90
22738;DHT22;11536;50.860;4.286;2023-01-19T04:35:48;2.60;99.90
22738;DHT22;11536;50.860;4.286;2023-01-19T04:38:14;2.60;99.90
22738;DHT22;11536;50.860;4.286;2023-01-19T04:40:39;2.60;99.90
22738;DHT22;11536;50.860;4.286;2023-01-19T04:43:06;2.70;99.90
22738;DHT22;11536;50.860;4.286;2023-01-19T04:45:31;2.70;99.90
22738;DHT22;11536;50.860;4.286;2023-01-19T04:47:57;2.60;99.90
22738;DHT22;11536;50.860;4.286;2023-01-19T04:50:23;2.70;99.90
22738;DHT22;11536;50.860;4.286;2023-01-19T04:52:49;2.70;99.90
22738;DHT22;11536;50.860;4.286;2023-01-19T04:55:15;2.60;99.90
22738;DHT22;11536;50.860;4.286;2023-01-19T04:57:41;2.70;99.90
22738;DHT22;11536;50.860;4.286;2023-01-19T05:00:07;2.70;99.90
22738;DHT22;11536;50.860;4.286;2023-01-19T05:02:33;2.70;99.90
22738;DHT22;11536;50.860;4.286;2023-01-19T05:04:59;2.70;99.90
22738;DHT22;11536;50.860;4.286;2023-01-19T05:07:25;2.70;99.90
22738;DHT22;11536;50.860;4.286;2023-01-19T05:09:51;2.60;99.90
22738;DHT22;11536;50.860;4.286;2023-01-19T05:12:16;2.60;99.90
22738;DHT22;11536;50.860;4.286;2023-01-19T05:14:42;2.60;99.90
22738;DHT22;11536;50.860;4.286;2023-01-19T05:17:08;2.60;99.90
22738;DHT22;11536;50.860;4.286;2023-01-19T05:19:34;2.60;99.90
22738;DHT22;11536;50.860;4.286;2023-01-19T05:22:01;2.60;99.90
22738;DHT22;11536;50.860;4.286;2023-01-19T05:24:28;2.60;99.90
22738;DHT22;11536;50.860;4.286;2023-01-19T05:26:53;2.60;99.90
22738;DHT22;11536;50.860;4.286;2023-01-19T05:29:19;2.60;99.90
22738;DHT22;11536;50.860;4.286;2023-01-19T05:31:44;2.60;99.90
22738;DHT22;11536;50.860;4.286;2023-01-19T05:34:10;2.60;99.90
22738;DHT22;11536;50.860;4.286;2023-01-19T05:36:36;2.60;99.90
22738;DHT22;11536;50.860;4.286;2023-01-19T05:39:02;2.60;99.90
22738;DHT22;11536;50.860;4.286;2023-01-19T05:41:28;2.60;99.90
22738;DHT22;11536;50.860;4.286;2023-01-19T05:43:53;2.60;99.90
22738;DHT22;11536;50.860;4.286;2023-01-19T05:46:19;2.60;99.90
22738;DHT22;11536;50.860;4.286;2023-01-19T05:48:44;2.60;99.90
22738;DHT22;11536;50.860;4.286;2023-01-19T05:51:10;2.50;99.90
22738;DHT22;11536;50.860;4.286;2023-01-19T05:53:36;2.50;99.90
22738;DHT22;11536;50.860;4.286;2023-01-19T05:56:06;2.50;99.90
22738;DHT22;11536;50.860;4.286;2023-01-19T05:58:34;2.50;99.90
22738;DHT22;11536;50.860;4.286;2023-01-19T06:01:04;2.50;99.90
22738;DHT22;11536;50.860;4.286;2023-01-19T06:03:31;2.50;99.90
22738;DHT22;11536;50.860;4.286;2023-01-19T06:05:58;2.50;99.90
22738;DHT22;11536;50.860;4.286;2023-01-19T06:08:23;2.50;99.90
22738;DHT22;11536;50.860;4.286;2023-01-19T06:10:49;2.50;99.90
22738;DHT22;11536;50.860;4.286;2023-01-19T06:13:15;2.50;99.90
22738;DHT22;11536;50.860;4.286;2023-01-19T06:15:41;2.50;99.90
22738;DHT22;11536;50.860;4.286;2023-01-19T06:18:08;2.40;99.90
22738;DHT22;11536;50.860;4.286;2023-01-19T06:20:34;2.50;99.90
22738;DHT22;11536;50.860;4.286;2023-01-19T06:23:00;2.50;99.90
22738;DHT22;11536;50.860;4.286;2023-01-19T06:25:26;2.50;99.90
22738;DHT22;11536;50.860;4.286;2023-01-19T06:27:51;2.50;99.90
22738;DHT22;11536;50.860;4.286;2023-01-19T06:30:18;2.50;99.90
22738;DHT22;11536;50.860;4.286;2023-01-19T06:32:43;2.40;99.90
22738;DHT22;11536;50.860;4.286;2023-01-19T06:35:09;2.50;99.90
22738;DHT22;11536;50.860;4.286;2023-01-19T06:37:35;2.50;99.90
22738;DHT22;11536;50.860;4.286;2023-01-19T06:40:01;2.50;99.90
22738;DHT22;11536;50.860;4.286;2023-01-19T06:42:30;2.50;99.90
22738;DHT22;11536;50.860;4.286;2023-01-19T06:44:55;2.50;99.90
22738;DHT22;11536;50.860;4.286;2023-01-19T06:47:21;2.50;99.90
22738;DHT22;11536;50.860;4.286;2023-01-19T06:49:47;2.50;99.90
22738;DHT22;11536;50.860;4.286;2023-01-19T06:52:13;2.50;99.90
22738;DHT22;11536;50.860;4.286;2023-01-19T06:54:41;2.50;99.90
22738;DHT22;11536;50.860;4.286;2023-01-19T06:57:08;2.50;99.90
22738;DHT22;11536;50.860;4.286;2023-01-19T06:59:35;2.50;99.90
22738;DHT22;11536;50.860;4.286;2023-01-19T07:02:00;2.50;99.90
22738;DHT22;11536;50.860;4.286;2023-01-19T07:04:26;2.50;99.90
22738;DHT22;11536;50.860;4.286;2023-01-19T07:06:52;2.50;99.90
22738;DHT22;11536;50.860;4.286;2023-01-19T07:09:17;2.50;99.90
22738;DHT22;11536;50.860;4.286;2023-01-19T07:11:45;2.50;99.90
22738;DHT22;11536;50.860;4.286;2023-01-19T07:14:11;2.40;99.90
22738;DHT22;11536;50.860;4.286;2023-01-19T07:16:37;2.50;99.90
22738;DHT22;11536;50.860;4.286;2023-01-19T07:19:03;2.50;99.90
22738;DHT22;11536;50.860;4.286;2023-01-19T07:21:29;2.50;99.90
22738;DHT22;11536;50.860;4.286;2023-01-19T07:23:54;2.50;99.90
22738;DHT22;11536;50.860;4.286;2023-01-19T07:26:20;2.50;99.90
22738;DHT22;11536;50.860;4.286;2023-01-19T07:28:50;2.50;99.90
22738;DHT22;11536;50.860;4.286;2023-01-19T07:31:16;2.50;99.90
22738;DHT22;11536;50.860;4.286;2023-01-19T07:33:42;2.50;99.90
22738;DHT22;11536;50.860;4.286;2023-01-19T07:36:09;2.50;99.90
22738;DHT22;11536;50.860;4.286;2023-01-19T07:38:34;2.60;99.90
22738;DHT22;11536;50.860;4.286;2023-01-19T07:41:01;2.60;99.90
22738;DHT22;11536;50.860;4.286;2023-01-19T07:43:27;2.50;99.90
22738;DHT22;11536;50.860;4.286;2023-01-19T07:45:55;2.50;99.90
22738;DHT22;11536;50.860;4.286;2023-01-19T07:48:21;2.50;99.90
22738;DHT22;11536;50.860;4.286;2023-01-19T07:50:47;2.60;99.90
22738;DHT22;11536;50.860;4.286;2023-01-19T07:53:12;2.60;99.90
22738;DHT22;11536;50.860;4.286;2023-01-19T07:55:38;2.60;99.90
22738;DHT22;11536;50.860;4.286;2023-01-19T07:58:04;2.60;99.90
22738;DHT22;11536;50.860;4.286;2023-01-19T08:00:32;2.60;99.90
22738;DHT22;11536;50.860;4.286;2023-01-19T08:02:59;2.60;99.90
22738;DHT22;11536;50.860;4.286;2023-01-19T08:05:27;2.60;99.90
22738;DHT22;11536;50.860;4.286;2023-01-19T08:07:56;2.60;99.90
22738;DHT22;11536;50.860;4.286;2023-01-19T08:10:24;2.60;99.90
22738;DHT22;11536;50.860;4.286;2023-01-19T08:12:53;2.60;99.90
22738;DHT22;11536;50.860;4.286;2023-01-19T08:15:19;2.60;99.90
22738;DHT22;11536;50.860;4.286;2023-01-19T08:17:54;2.60;99.90
22738;DHT22;11536;50.860;4.286;2023-01-19T08:20:20;2.60;99.90
22738;DHT22;11536;50.860;4.286;2023-01-19T08:22:47;2.60;99.90
22738;DHT22;11536;50.860;4.286;2023-01-19T08:25:13;2.60;99.90
22738;DHT22;11536;50.860;4.286;2023-01-19T08:27:39;2.60;99.90
22738;DHT22;11536;50.860;4.286;2023-01-19T08:30:05;2.60;99.90
22738;DHT22;11536;50.860;4.286;2023-01-19T08:32:30;2.60;99.90
22738;DHT22;11536;50.860;4.286;2023-01-19T08:34:56;2.70;99.90
22738;DHT22;11536;50.860;4.286;2023-01-19T08:37:22;2.60;99.90
22738;DHT22;11536;50.860;4.286;2023-01-19T08:39:49;2.70;99.90
22738;DHT22;11536;50.860;4.286;2023-01-19T08:42:14;2.70;99.90
22738;DHT22;11536;50.860;4.286;2023-01-19T08:44:40;2.70;99.90
22738;DHT22;11536;50.860;4.286;2023-01-19T08:47:05;2.70;99.90
22738;DHT22;11536;50.860;4.286;2023-01-19T08:49:32;2.70;99.90
22738;DHT22;11536;50.860;4.286;2023-01-19T08:51:58;2.70;99.90
22738;DHT22;11536;50.860;4.286;2023-01-19T08:54:23;2.70;99.90
22738;DHT22;11536;50.860;4.286;2023-01-19T08:56:49;2.70;99.90
22738;DHT22;11536;50.860;4.286;2023-01-19T08:59:15;2.70;99.90
22738;DHT22;11536;50.860;4.286;2023-01-19T09:01:41;2.70;99.90
22738;DHT22;11536;50.860;4.286;2023-01-19T09:04:06;2.70;99.90
22738;DHT22;11536;50.860;4.286;2023-01-19T09:06:32;2.80;99.90
22738;DHT22;11536;50.860;4.286;2023-01-19T09:08:58;2.80;99.90
22738;DHT22;11536;50.860;4.286;2023-01-19T09:11:24;2.80;99.90
22738;DHT22;11536;50.860;4.286;2023-01-19T09:13:51;2.80;99.90
22738;DHT22;11536;50.860;4.286;2023-01-19T09:16:17;2.80;99.90
22738;DHT22;11536;50.860;4.286;2023-01-19T09:18:43;2.80;99.90
22738;DHT22;11536;50.860;4.286;2023-01-19T09:21:10;2.90;99.90
22738;DHT22;11536;50.860;4.286;2023-01-19T09:23:36;2.90;99.90
22738;DHT22;11536;50.860;4.286;2023-01-19T09:26:04;2.90;99.90
22738;DHT22;11536;50.860;4.286;2023-01-19T09:28:30;2.90;99.90
22738;DHT22;11536;50.860;4.286;2023-01-19T09:30:56;2.90;99.90
22738;DHT22;11536;50.860;4.286;2023-01-19T09:33:22;2.80;99.90
22738;DHT22;11536;50.860;4.286;2023-01-19T09:35:49;2.90;99.90
22738;DHT22;11536;50.860;4.286;2023-01-19T09:38:16;2.90;99.90
22738;DHT22;11536;50.860;4.286;2023-01-19T09:40:46;2.90;99.90
22738;DHT22;11536;50.860;4.286;2023-01-19T09:43:36;2.90;99.90
22738;DHT22;11536;50.860;4.286;2023-01-19T09:46:10;2.90;99.90
22738;DHT22;11536;50.860;4.286;2023-01-19T09:51:15;2.90;99.90
22738;DHT22;11536;50.860;4.286;2023-01-19T09:53:55;2.90;99.90
22738;DHT22;11536;50.860;4.286;2023-01-19T09:56:22;2.90;99.90
22738;DHT22;11536;50.860;4.286;2023-01-19T09:58:49;2.90;99.90
22738;DHT22;11536;50.860;4.286;2023-01-19T10:04:27;2.90;99.90
22738;DHT22;11536;50.860;4.286;2023-01-19T10:12:40;2.90;99.90
22738;DHT22;11536;50.860;4.286;2023-01-19T10:18:21;3.00;99.90
22738;DHT22;11536;50.860;4.286;2023-01-19T10:20:49;3.00;99.90
22738;DHT22;11536;50.860;4.286;2023-01-19T10:24:12;3.00;99.90
22738;DHT22;11536;50.860;4.286;2023-01-19T10:26:31;3.00;99.90
22738;DHT22;11536;50.860;4.286;2023-01-19T10:29:12;3.00;99.90
22738;DHT22;11536;50.860;4.286;2023-01-19T10:31:41;3.00;99.90
22738;DHT22;11536;50.860;4.286;2023-01-19T10:34:11;3.00;99.90
22738;DHT22;11536;50.860;4.286;2023-01-19T10:36:43;3.10;99.90
22738;DHT22;11536;50.860;4.286;2023-01-19T10:39:10;3.10;99.90
22738;DHT22;11536;50.860;4.286;2023-01-19T10:41:41;3.10;99.90
22738;DHT22;11536;50.860;4.286;2023-01-19T10:44:07;3.10;99.90
22738;DHT22;11536;50.860;4.286;2023-01-19T10:46:48;3.10;99.90
22738;DHT22;11536;50.860;4.286;2023-01-19T10:49:38;3.10;99.90
22738;DHT22;11536;50.860;4.286;2023-01-19T10:54:45;3.10;99.90
22738;DHT22;11536;50.860;4.286;2023-01-19T10:59:52;3.10;99.90
22738;DHT22;11536;50.860;4.286;2023-01-19T11:02:24;3.00;99.90
22738;DHT22;11536;50.860;4.286;2023-01-19T11:04:55;3.00;99.90
22738;DHT22;11536;50.860;4.286;2023-01-19T11:07:32;3.00;99.90
22738;DHT22;11536;50.860;4.286;2023-01-19T11:10:18;3.00;99.90
22738;DHT22;11536;50.860;4.286;2023-01-19T11:17:56;3.10;99.90
22738;DHT22;11536;50.860;4.286;2023-01-19T11:21:06;3.10;99.90
22738;DHT22;11536;50.860;4.286;2023-01-19T11:23:27;3.10;99.90
22738;DHT22;11536;50.860;4.286;2023-01-19T11:25:58;3.10;99.90
22738;DHT22;11536;50.860;4.286;2023-01-19T11:28:30;3.10;99.90
22738;DHT22;11536;50.860;4.286;2023-01-19T11:31:02;3.10;99.90
22738;DHT22;11536;50.860;4.286;2023-01-19T11:33:49;3.10;99.90
22738;DHT22;11536;50.860;4.286;2023-01-19T11:36:21;3.10;99.90
22738;DHT22;11536;50.860;4.286;2023-01-19T11:38:49;3.10;99.90
22738;DHT22;11536;50.860;4.286;2023-01-19T11:41:17;3.10;99.90
22738;DHT22;11536;50.860;4.286;2023-01-19T11:43:44;3.10;99.90
22738;DHT22;11536;50.860;4.286;2023-01-19T11:46:13;3.10;99.90
22738;DHT22;11536;50.860;4.286;2023-01-19T11:48:45;3.20;99.90
22738;DHT22;11536;50.860;4.286;2023-01-19T11:51:17;3.20;99.90
22738;DHT22;11536;50.860;4.286;2023-01-19T11:53:48;3.20;99.90
22738;DHT22;11536;50.860;4.286;2023-01-19T11:56:17;3.30;99.90
22738;DHT22;11536;50.860;4.286;2023-01-19T11:58:45;3.30;99.90
22738;DHT22;11536;50.860;4.286;2023-01-19T12:01:24;3.30;99.90
22738;DHT22;11536;50.860;4.286;2023-01-19T12:06:23;3.30;99.90
22738;DHT22;11536;50.860;4.286;2023-01-19T12:09:02;3.30;99.90
22738;DHT22;11536;50.860;4.286;2023-01-19T12:11:36;3.30;99.90
22738;DHT22;11536;50.860;4.286;2023-01-19T12:14:03;3.30;99.90
22738;DHT22;11536;50.860;4.286;2023-01-19T12:16:32;3.30;99.90
22738;DHT22;11536;50.860;4.286;2023-01-19T12:19:02;3.30;99.90
22738;DHT22;11536;50.860;4.286;2023-01-19T12:21:29;3.40;99.90
22738;DHT22;11536;50.860;4.286;2023-01-19T12:26:37;3.40;99.90
22738;DHT22;11536;50.860;4.286;2023-01-19T12:29:13;3.40;99.90
22738;DHT22;11536;50.860;4.286;2023-01-19T12:31:40;3.40;99.90
22738;DHT22;11536;50.860;4.286;2023-01-19T12:36:49;3.50;99.90
22738;DHT22;11536;50.860;4.286;2023-01-19T12:39:22;3.40;99.90
22738;DHT22;11536;50.860;4.286;2023-01-19T12:42:04;3.40;99.90
22738;DHT22;11536;50.860;4.286;2023-01-19T12:44:31;3.50;99.90
22738;DHT22;11536;50.860;4.286;2023-01-19T12:47:00;3.50;99.90
22738;DHT22;11536;50.860;4.286;2023-01-19T13:02:54;3.70;99.90
22738;DHT22;11536;50.860;4.286;2023-01-19T13:05:46;3.70;99.90
22738;DHT22;11536;50.860;4.286;2023-01-19T13:08:16;3.70;99.90
22738;DHT22;11536;50.860;4.286;2023-01-19T13:13:43;3.80;99.90
22738;DHT22;11536;50.860;4.286;2023-01-19T13:29:24;3.90;99.90
22738;DHT22;11536;50.860;4.286;2023-01-19T13:31:51;4.00;99.90
22738;DHT22;11536;50.860;4.286;2023-01-19T13:34:28;4.00;99.90
22738;DHT22;11536;50.860;4.286;2023-01-19T13:36:55;4.00;99.90
22738;DHT22;11536;50.860;4.286;2023-01-19T13:39:35;4.00;99.90
22738;DHT22;11536;50.860;4.286;2023-01-19T13:42:04;4.10;99.90
22738;DHT22;11536;50.860;4.286;2023-01-19T13:44:39;4.10;99.90
22738;DHT22;11536;50.860;4.286;2023-01-19T13:47:16;4.10;99.90
22738;DHT22;11536;50.860;4.286;2023-01-19T13:49:45;4.10;99.90
22738;DHT22;11536;50.860;4.286;2023-01-19T13:54:52;4.20;99.90
22738;DHT22;11536;50.860;4.286;2023-01-19T13:57:29;4.20;99.90
22738;DHT22;11536;50.860;4.286;2023-01-19T14:02:37;4.30;99.90
22738;DHT22;11536;50.860;4.286;2023-01-19T14:05:25;4.30;99.90
22738;DHT22;11536;50.860;4.286;2023-01-19T14:13:28;4.30;99.90
22738;DHT22;11536;50.860;4.286;2023-01-19T14:16:15;4.30;99.90
22738;DHT22;11536;50.860;4.286;2023-01-19T14:18:41;4.30;99.90
22738;DHT22;11536;50.860;4.286;2023-01-19T14:21:09;4.30;99.90
22738;DHT22;11536;50.860;4.286;2023-01-19T14:23:48;4.40;99.90
22738;DHT22;11536;50.860;4.286;2023-01-19T14:29:22;4.40;99.90
22738;DHT22;11536;50.860;4.286;2023-01-19T14:39:44;4.40;99.90
22738;DHT22;11536;50.860;4.286;2023-01-19T14:42:15;4.50;99.90
22738;DHT22;11536;50.860;4.286;2023-01-19T14:44:45;4.40;99.90
22738;DHT22;11536;50.860;4.286;2023-01-19T14:47:24;4.40;99.90
22738;DHT22;11536;50.860;4.286;2023-01-19T14:49:50;4.40;99.90
22738;DHT22;11536;50.860;4.286;2023-01-19T14:52:24;4.40;99.90
22738;DHT22;11536;50.860;4.286;2023-01-19T14:54:51;4.40;99.90
22738;DHT22;11536;50.860;4.286;2023-01-19T14:57:18;4.40;99.90
22738;DHT22;11536;50.860;4.286;2023-01-19T14:59:44;4.40;99.90
22738;DHT22;11536;50.860;4.286;2023-01-19T15:02:14;4.40;99.90
22738;DHT22;11536;50.860;4.286;2023-01-19T15:04:39;4.40;99.90
22738;DHT22;11536;50.860;4.286;2023-01-19T15:07:05;4.40;99.90
22738;DHT22;11536;50.860;4.286;2023-01-19T15:09:31;4.40;99.90
22738;DHT22;11536;50.860;4.286;2023-01-19T15:11:57;4.30;99.90
22738;DHT22;11536;50.860;4.286;2023-01-19T15:14:23;4.30;99.90
22738;DHT22;11536;50.860;4.286;2023-01-19T15:16:49;4.30;99.90
22738;DHT22;11536;50.860;4.286;2023-01-19T15:19:16;4.40;99.90
22738;DHT22;11536;50.860;4.286;2023-01-19T15:21:42;4.40;99.90
22738;DHT22;11536;50.860;4.286;2023-01-19T15:24:10;4.30;99.90
22738;DHT22;11536;50.860;4.286;2023-01-19T15:26:38;4.40;99.90
22738;DHT22;11536;50.860;4.286;2023-01-19T15:29:33;4.30;99.90
22738;DHT22;11536;50.860;4.286;2023-01-19T15:31:59;4.30;99.90
22738;DHT22;11536;50.860;4.286;2023-01-19T15:34:24;4.20;99.90
22738;DHT22;11536;50.860;4.286;2023-01-19T15:36:53;4.20;99.90
22738;DHT22;11536;50.860;4.286;2023-01-19T15:39:18;4.20;99.90
22738;DHT22;11536;50.860;4.286;2023-01-19T15:41:44;4.20;99.90
22738;DHT22;11536;50.860;4.286;2023-01-19T15:44:10;4.10;99.90
22738;DHT22;11536;50.860;4.286;2023-01-19T15:46:35;4.10;99.90
22738;DHT22;11536;50.860;4.286;2023-01-19T15:49:01;4.10;99.90
22738;DHT22;11536;50.860;4.286;2023-01-19T15:51:27;4.10;99.90
22738;DHT22;11536;50.860;4.286;2023-01-19T15:53:53;4.10;99.90
22738;DHT22;11536;50.860;4.286;2023-01-19T15:56:25;4.10;99.90
22738;DHT22;11536;50.860;4.286;2023-01-19T15:58:52;4.10;99.90
22738;DHT22;11536;50.860;4.286;2023-01-19T16:01:20;4.10;99.90
22738;DHT22;11536;50.860;4.286;2023-01-19T16:03:46;4.10;99.90
22738;DHT22;11536;50.860;4.286;2023-01-19T16:06:12;4.10;99.90
22738;DHT22;11536;50.860;4.286;2023-01-19T16:08:38;4.10;99.90
22738;DHT22;11536;50.860;4.286;2023-01-19T16:11:07;4.10;99.90
22738;DHT22;11536;50.860;4.286;2023-01-19T16:13:32;4.00;99.90
22738;DHT22;11536;50.860;4.286;2023-01-19T16:16:12;4.00;99.90
22738;DHT22;11536;50.860;4.286;2023-01-19T16:18:38;4.00;99.90
22738;DHT22;11536;50.860;4.286;2023-01-19T16:21:04;4.00;99.90
22738;DHT22;11536;50.860;4.286;2023-01-19T16:23:29;4.00;99.90
22738;DHT22;11536;50.860;4.286;2023-01-19T16:26:00;4.00;99.90
22738;DHT22;11536;50.860;4.286;2023-01-19T16:28:29;4.00;99.90
22738;DHT22;11536;50.860;4.286;2023-01-19T16:30:55;4.00;99.90
22738;DHT22;11536;50.860;4.286;2023-01-19T16:33:21;4.00;99.90
22738;DHT22;11536;50.860;4.286;2023-01-19T16:35:47;3.90;99.90
22738;DHT22;11536;50.860;4.286;2023-01-19T16:38:12;3.90;99.90
22738;DHT22;11536;50.860;4.286;2023-01-19T16:40:38;3.90;99.90
22738;DHT22;11536;50.860;4.286;2023-01-19T16:43:04;3.80;99.90
22738;DHT22;11536;50.860;4.286;2023-01-19T16:45:29;3.80;99.90
22738;DHT22;11536;50.860;4.286;2023-01-19T16:47:55;3.80;99.90
22738;DHT22;11536;50.860;4.286;2023-01-19T16:50:21;3.80;99.90
22738;DHT22;11536;50.860;4.286;2023-01-19T16:52:46;3.80;99.90
22738;DHT22;11536;50.860;4.286;2023-01-19T16:55:12;3.80;99.90
22738;DHT22;11536;50.860;4.286;2023-01-19T16:57:37;3.80;99.90
22738;DHT22;11536;50.860;4.286;2023-01-19T17:00:05;3.80;99.90
22738;DHT22;11536;50.860;4.286;2023-01-19T17:02:31;3.80;99.90
22738;DHT22;11536;50.860;4.286;2023-01-19T17:04:57;3.70;99.90
22738;DHT22;11536;50.860;4.286;2023-01-19T17:07:25;3.70;99.90
22738;DHT22;11536;50.860;4.286;2023-01-19T17:09:51;3.70;99.90
22738;DHT22;11536;50.860;4.286;2023-01-19T17:12:16;3.70;99.90
22738;DHT22;11536;50.860;4.286;2023-01-19T17:14:42;3.70;99.90
22738;DHT22;11536;50.860;4.286;2023-01-19T17:17:08;3.70;99.90
22738;DHT22;11536;50.860;4.286;2023-01-19T17:19:34;3.70;99.90
22738;DHT22;11536;50.860;4.286;2023-01-19T17:21:59;3.70;99.90
22738;DHT22;11536;50.860;4.286;2023-01-19T17:24:25;3.70;99.90
22738;DHT22;11536;50.860;4.286;2023-01-19T17:26:51;3.60;99.90
22738;DHT22;11536;50.860;4.286;2023-01-19T17:29:16;3.60;99.90
22738;DHT22;11536;50.860;4.286;2023-01-19T17:31:42;3.60;99.90
22738;DHT22;11536;50.860;4.286;2023-01-19T17:34:11;3.60;99.90
22738;DHT22;11536;50.860;4.286;2023-01-19T17:36:37;3.60;99.90
22738;DHT22;11536;50.860;4.286;2023-01-19T17:39:07;3.60;99.90
22738;DHT22;11536;50.860;4.286;2023-01-19T17:41:34;3.60;99.90